sensor_id;sensor_type;location;lat;lon;timestamp;P1;durP1;ratioP1;P2;durP2;ratioP2
9801;SDS011;4940;50.900;4.672;2023-01-08T00:01:23;6.80;;;4.10;;
9801;SDS011;4940;50.900;4.672;2023-01-08T00:03:51;3.60;;;3.30;;
9801;SDS011;4940;50.900;4.672;2023-01-08T00:06:18;3.95;;;3.13;;
9801;SDS011;4940;50.900;4.672;2023-01-08T00:08:46;3.33;;;3.03;;
9801;SDS011;4940;50.900;4.672;2023-01-08T00:11:15;6.20;;;3.45;;
9801;SDS011;4940;50.900;4.672;2023-01-08T00:13:43;4.97;;;3.17;;
9801;SDS011;4940;50.900;4.672;2023-01-08T00:16:11;3.53;;;2.92;;
9801;SDS011;4940;50.900;4.672;2023-01-08T00:18:39;5.93;;;3.05;;
9801;SDS011;4940;50.900;4.672;2023-01-08T00:21:07;6.15;;;3.58;;
9801;SDS011;4940;50.900;4.672;2023-01-08T00:23:34;2.90;;;2.67;;
9801;SDS011;4940;50.900;4.672;2023-01-08T00:26:02;3.00;;;2.65;;
9801;SDS011;4940;50.900;4.672;2023-01-08T00:28:32;5.95;;;2.97;;
9801;SDS011;4940;50.900;4.672;2023-01-08T00:31:01;4.95;;;3.13;;
9801;SDS011;4940;50.900;4.672;2023-01-08T00:33:29;6.95;;;3.17;;
9801;SDS011;4940;50.900;4.672;2023-01-08T00:35:56;7.18;;;3.28;;
9801;SDS011;4940;50.900;4.672;2023-01-08T00:38:24;4.55;;;2.95;;
9801;SDS011;4940;50.900;4.672;2023-01-08T00:40:52;7.45;;;3.38;;
9801;SDS011;4940;50.900;4.672;2023-01-08T00:43:20;5.97;;;3.03;;
9801;SDS011;4940;50.900;4.672;2023-01-08T00:45:49;3.55;;;2.95;;
9801;SDS011;4940;50.900;4.672;2023-01-08T00:48:17;5.00;;;3.38;;
9801;SDS011;4940;50.900;4.672;2023-01-08T00:50:46;4.70;;;3.53;;
9801;SDS011;4940;50.900;4.672;2023-01-08T00:53:14;4.80;;;2.63;;
9801;SDS011;4940;50.900;4.672;2023-01-08T00:55:41;2.17;;;1.48;;
9801;SDS011;4940;50.900;4.672;2023-01-08T00:58:09;3.63;;;1.38;;
9801;SDS011;4940;50.900;4.672;2023-01-08T01:00:36;1.30;;;1.00;;
9801;SDS011;4940;50.900;4.672;2023-01-08T01:03:05;1.30;;;0.88;;
9801;SDS011;4940;50.900;4.672;2023-01-08T01:05:32;2.90;;;0.98;;
9801;SDS011;4940;50.900;4.672;2023-01-08T01:08:00;2.78;;;0.90;;
9801;SDS011;4940;50.900;4.672;2023-01-08T01:10:27;1.10;;;0.60;;
9801;SDS011;4940;50.900;4.672;2023-01-08T01:12:55;1.00;;;0.60;;
9801;SDS011;4940;50.900;4.672;2023-01-08T01:15:22;1.38;;;0.50;;
9801;SDS011;4940;50.900;4.672;2023-01-08T01:17:50;1.10;;;0.60;;
9801;SDS011;4940;50.900;4.672;2023-01-08T01:20:19;0.52;;;0.52;;
9801;SDS011;4940;50.900;4.672;2023-01-08T01:22:47;0.98;;;0.65;;
9801;SDS011;4940;50.900;4.672;2023-01-08T01:25:16;4.47;;;0.98;;
9801;SDS011;4940;50.900;4.672;2023-01-08T01:27:43;2.50;;;1.10;;
9801;SDS011;4940;50.900;4.672;2023-01-08T01:30:11;1.15;;;1.02;;
9801;SDS011;4940;50.900;4.672;2023-01-08T01:32:39;2.35;;;1.60;;
9801;SDS011;4940;50.900;4.672;2023-01-08T01:35:07;2.05;;;1.60;;
9801;SDS011;4940;50.900;4.672;2023-01-08T01:37:36;3.22;;;2.00;;
9801;SDS011;4940;50.900;4.672;2023-01-08T01:40:04;2.83;;;2.38;;
9801;SDS011;4940;50.900;4.672;2023-01-08T01:42:31;5.38;;;2.80;;
9801;SDS011;4940;50.900;4.672;2023-01-08T01:45:08;4.45;;;2.50;;
9801;SDS011;4940;50.900;4.672;2023-01-08T01:47:39;5.63;;;3.25;;
9801;SDS011;4940;50.900;4.672;2023-01-08T01:50:09;3.28;;;3.03;;
9801;SDS011;4940;50.900;4.672;2023-01-08T01:52:41;4.32;;;3.90;;
9801;SDS011;4940;50.900;4.672;2023-01-08T01:55:11;4.97;;;4.30;;
9801;SDS011;4940;50.900;4.672;2023-01-08T01:57:39;5.60;;;5.20;;
9801;SDS011;4940;50.900;4.672;2023-01-08T02:00:11;9.10;;;5.55;;
9801;SDS011;4940;50.900;4.672;2023-01-08T02:02:38;5.50;;;5.13;;
9801;SDS011;4940;50.900;4.672;2023-01-08T02:05:06;6.28;;;5.50;;
9801;SDS011;4940;50.900;4.672;2023-01-08T02:07:35;6.65;;;6.03;;
9801;SDS011;4940;50.900;4.672;2023-01-08T02:10:10;6.53;;;5.93;;
9801;SDS011;4940;50.900;4.672;2023-01-08T02:12:43;7.53;;;6.55;;
9801;SDS011;4940;50.900;4.672;2023-01-08T02:15:15;7.38;;;6.97;;
9801;SDS011;4940;50.900;4.672;2023-01-08T02:17:47;7.22;;;6.70;;
9801;SDS011;4940;50.900;4.672;2023-01-08T02:20:16;7.63;;;7.22;;
9801;SDS011;4940;50.900;4.672;2023-01-08T02:22:51;8.52;;;7.88;;
9801;SDS011;4940;50.900;4.672;2023-01-08T02:25:28;8.90;;;8.30;;
9801;SDS011;4940;50.900;4.672;2023-01-08T02:28:04;9.15;;;8.40;;
9801;SDS011;4940;50.900;4.672;2023-01-08T02:30:34;8.93;;;8.45;;
9801;SDS011;4940;50.900;4.672;2023-01-08T02:33:02;8.35;;;7.65;;
9801;SDS011;4940;50.900;4.672;2023-01-08T02:35:32;8.98;;;8.48;;
9801;SDS011;4940;50.900;4.672;2023-01-08T02:38:03;9.63;;;8.90;;
9801;SDS011;4940;50.900;4.672;2023-01-08T02:40:32;10.00;;;9.30;;
9801;SDS011;4940;50.900;4.672;2023-01-08T02:43:04;9.65;;;8.75;;
9801;SDS011;4940;50.900;4.672;2023-01-08T02:45:36;10.13;;;9.27;;
9801;SDS011;4940;50.900;4.672;2023-01-08T02:48:06;10.10;;;9.45;;
9801;SDS011;4940;50.900;4.672;2023-01-08T02:50:36;10.38;;;9.60;;
9801;SDS011;4940;50.900;4.672;2023-01-08T02:53:06;11.52;;;10.57;;
9801;SDS011;4940;50.900;4.672;2023-01-08T02:55:37;11.32;;;10.38;;
9801;SDS011;4940;50.900;4.672;2023-01-08T02:58:07;12.20;;;11.02;;
9801;SDS011;4940;50.900;4.672;2023-01-08T03:00:36;12.52;;;11.63;;
9801;SDS011;4940;50.900;4.672;2023-01-08T03:03:06;12.40;;;11.60;;
9801;SDS011;4940;50.900;4.672;2023-01-08T03:05:39;15.35;;;13.20;;
9801;SDS011;4940;50.900;4.672;2023-01-08T03:08:08;14.35;;;13.30;;
9801;SDS011;4940;50.900;4.672;2023-01-08T03:10:36;14.15;;;13.15;;
9801;SDS011;4940;50.900;4.672;2023-01-08T03:13:05;13.70;;;12.68;;
9801;SDS011;4940;50.900;4.672;2023-01-08T03:15:36;12.57;;;11.60;;
9801;SDS011;4940;50.900;4.672;2023-01-08T03:18:06;11.05;;;10.35;;
9801;SDS011;4940;50.900;4.672;2023-01-08T03:20:35;11.30;;;10.60;;
9801;SDS011;4940;50.900;4.672;2023-01-08T03:23:04;10.77;;;9.95;;
9801;SDS011;4940;50.900;4.672;2023-01-08T03:25:33;10.10;;;9.57;;
9801;SDS011;4940;50.900;4.672;2023-01-08T03:28:04;10.13;;;9.48;;
9801;SDS011;4940;50.900;4.672;2023-01-08T03:30:37;9.80;;;9.20;;
9801;SDS011;4940;50.900;4.672;2023-01-08T03:33:06;9.55;;;8.95;;
9801;SDS011;4940;50.900;4.672;2023-01-08T03:35:36;9.70;;;8.95;;
9801;SDS011;4940;50.900;4.672;2023-01-08T03:38:05;8.52;;;8.13;;
9801;SDS011;4940;50.900;4.672;2023-01-08T03:40:39;8.65;;;8.05;;
9801;SDS011;4940;50.900;4.672;2023-01-08T03:43:10;8.75;;;8.35;;
9801;SDS011;4940;50.900;4.672;2023-01-08T03:45:40;10.45;;;9.88;;
9801;SDS011;4940;50.900;4.672;2023-01-08T03:48:10;9.63;;;9.02;;
9801;SDS011;4940;50.900;4.672;2023-01-08T03:50:38;11.52;;;10.38;;
9801;SDS011;4940;50.900;4.672;2023-01-08T03:53:06;9.50;;;8.77;;
9801;SDS011;4940;50.900;4.672;2023-01-08T03:55:34;10.10;;;9.52;;
9801;SDS011;4940;50.900;4.672;2023-01-08T03:58:01;10.23;;;9.50;;
9801;SDS011;4940;50.900;4.672;2023-01-08T04:00:28;9.75;;;8.95;;
9801;SDS011;4940;50.900;4.672;2023-01-08T04:02:57;9.20;;;8.60;;
9801;SDS011;4940;50.900;4.672;2023-01-08T04:05:25;8.27;;;7.70;;
9801;SDS011;4940;50.900;4.672;2023-01-08T04:07:53;8.82;;;8.27;;
9801;SDS011;4940;50.900;4.672;2023-01-08T04:10:21;8.30;;;7.70;;
9801;SDS011;4940;50.900;4.672;2023-01-08T04:12:48;8.45;;;7.95;;
9801;SDS011;4940;50.900;4.672;2023-01-08T04:15:15;8.57;;;7.50;;
9801;SDS011;4940;50.900;4.672;2023-01-08T04:17:43;8.27;;;7.60;;
9801;SDS011;4940;50.900;4.672;2023-01-08T04:20:12;8.02;;;7.53;;
9801;SDS011;4940;50.900;4.672;2023-01-08T04:22:39;8.55;;;7.95;;
9801;SDS011;4940;50.900;4.672;2023-01-08T04:25:07;7.85;;;7.40;;
9801;SDS011;4940;50.900;4.672;2023-01-08T04:27:34;8.57;;;7.88;;
9801;SDS011;4940;50.900;4.672;2023-01-08T04:30:02;9.30;;;8.60;;
9801;SDS011;4940;50.900;4.672;2023-01-08T04:32:30;9.88;;;8.43;;
9801;SDS011;4940;50.900;4.672;2023-01-08T04:34:57;8.45;;;7.95;;
9801;SDS011;4940;50.900;4.672;2023-01-08T04:37:26;8.82;;;7.97;;
9801;SDS011;4940;50.900;4.672;2023-01-08T04:39:54;8.85;;;8.25;;
9801;SDS011;4940;50.900;4.672;2023-01-08T04:42:21;8.45;;;7.80;;
9801;SDS011;4940;50.900;4.672;2023-01-08T04:44:48;8.38;;;7.13;;
9801;SDS011;4940;50.900;4.672;2023-01-08T04:47:16;7.68;;;7.22;;
9801;SDS011;4940;50.900;4.672;2023-01-08T04:49:43;7.07;;;6.47;;
9801;SDS011;4940;50.900;4.672;2023-01-08T04:52:11;6.10;;;5.50;;
9801;SDS011;4940;50.900;4.672;2023-01-08T04:54:39;10.10;;;6.47;;
9801;SDS011;4940;50.900;4.672;2023-01-08T04:57:07;8.50;;;6.07;;
9801;SDS011;4940;50.900;4.672;2023-01-08T04:59:34;6.40;;;5.93;;
9801;SDS011;4940;50.900;4.672;2023-01-08T05:02:01;6.68;;;5.85;;
9801;SDS011;4940;50.900;4.672;2023-01-08T05:04:29;7.15;;;6.53;;
9801;SDS011;4940;50.900;4.672;2023-01-08T05:06:56;7.05;;;6.32;;
9801;SDS011;4940;50.900;4.672;2023-01-08T05:09:24;8.57;;;5.72;;
9801;SDS011;4940;50.900;4.672;2023-01-08T05:11:53;6.88;;;6.47;;
9801;SDS011;4940;50.900;4.672;2023-01-08T05:14:20;6.63;;;6.13;;
9801;SDS011;4940;50.900;4.672;2023-01-08T05:16:47;7.78;;;7.18;;
9801;SDS011;4940;50.900;4.672;2023-01-08T05:19:15;7.93;;;6.55;;
9801;SDS011;4940;50.900;4.672;2023-01-08T05:21:42;8.82;;;6.50;;
9801;SDS011;4940;50.900;4.672;2023-01-08T05:24:09;6.75;;;6.10;;
9801;SDS011;4940;50.900;4.672;2023-01-08T05:26:37;6.88;;;6.18;;
9801;SDS011;4940;50.900;4.672;2023-01-08T05:29:05;6.20;;;5.55;;
9801;SDS011;4940;50.900;4.672;2023-01-08T05:31:33;7.93;;;6.65;;
9801;SDS011;4940;50.900;4.672;2023-01-08T05:34:00;6.93;;;6.40;;
9801;SDS011;4940;50.900;4.672;2023-01-08T05:36:28;7.03;;;6.43;;
9801;SDS011;4940;50.900;4.672;2023-01-08T05:38:55;7.03;;;6.50;;
9801;SDS011;4940;50.900;4.672;2023-01-08T05:41:23;7.10;;;6.55;;
9801;SDS011;4940;50.900;4.672;2023-01-08T05:43:50;8.18;;;7.40;;
9801;SDS011;4940;50.900;4.672;2023-01-08T05:46:19;7.80;;;7.15;;
9801;SDS011;4940;50.900;4.672;2023-01-08T05:48:47;7.50;;;6.65;;
9801;SDS011;4940;50.900;4.672;2023-01-08T05:51:14;8.88;;;7.40;;
9801;SDS011;4940;50.900;4.672;2023-01-08T05:53:42;7.70;;;7.20;;
9801;SDS011;4940;50.900;4.672;2023-01-08T05:56:10;8.10;;;7.47;;
9801;SDS011;4940;50.900;4.672;2023-01-08T05:58:37;8.48;;;7.68;;
9801;SDS011;4940;50.900;4.672;2023-01-08T06:01:05;7.72;;;7.10;;
9801;SDS011;4940;50.900;4.672;2023-01-08T06:03:34;9.95;;;6.03;;
9801;SDS011;4940;50.900;4.672;2023-01-08T06:06:02;7.03;;;6.53;;
9801;SDS011;4940;50.900;4.672;2023-01-08T06:08:31;7.28;;;6.57;;
9801;SDS011;4940;50.900;4.672;2023-01-08T06:10:59;7.30;;;5.45;;
9801;SDS011;4940;50.900;4.672;2023-01-08T06:13:27;7.15;;;6.07;;
9801;SDS011;4940;50.900;4.672;2023-01-08T06:15:56;6.65;;;5.80;;
9801;SDS011;4940;50.900;4.672;2023-01-08T06:18:24;8.75;;;6.45;;
9801;SDS011;4940;50.900;4.672;2023-01-08T06:20:53;7.40;;;6.88;;
9801;SDS011;4940;50.900;4.672;2023-01-08T06:23:20;8.20;;;6.22;;
9801;SDS011;4940;50.900;4.672;2023-01-08T06:25:50;7.07;;;6.38;;
9801;SDS011;4940;50.900;4.672;2023-01-08T06:28:18;6.95;;;6.28;;
9801;SDS011;4940;50.900;4.672;2023-01-08T06:30:46;8.30;;;7.47;;
9801;SDS011;4940;50.900;4.672;2023-01-08T06:33:13;9.18;;;6.78;;
9801;SDS011;4940;50.900;4.672;2023-01-08T06:35:41;7.28;;;6.65;;
9801;SDS011;4940;50.900;4.672;2023-01-08T06:38:10;12.00;;;6.55;;
9801;SDS011;4940;50.900;4.672;2023-01-08T06:40:37;9.38;;;7.07;;
9801;SDS011;4940;50.900;4.672;2023-01-08T06:43:05;7.88;;;6.57;;
9801;SDS011;4940;50.900;4.672;2023-01-08T06:45:32;12.10;;;7.25;;
9801;SDS011;4940;50.900;4.672;2023-01-08T06:47:59;6.72;;;6.00;;
9801;SDS011;4940;50.900;4.672;2023-01-08T06:50:27;8.18;;;6.85;;
9801;SDS011;4940;50.900;4.672;2023-01-08T06:52:55;8.52;;;6.80;;
9801;SDS011;4940;50.900;4.672;2023-01-08T06:55:31;7.57;;;5.78;;
9801;SDS011;4940;50.900;4.672;2023-01-08T06:57:58;7.68;;;5.25;;
9801;SDS011;4940;50.900;4.672;2023-01-08T07:00:25;10.63;;;6.20;;
9801;SDS011;4940;50.900;4.672;2023-01-08T07:02:53;6.43;;;5.63;;
9801;SDS011;4940;50.900;4.672;2023-01-08T07:05:21;8.65;;;5.65;;
9801;SDS011;4940;50.900;4.672;2023-01-08T07:07:48;6.82;;;6.20;;
9801;SDS011;4940;50.900;4.672;2023-01-08T07:10:16;9.67;;;6.93;;
9801;SDS011;4940;50.900;4.672;2023-01-08T07:12:45;8.82;;;8.02;;
9801;SDS011;4940;50.900;4.672;2023-01-08T07:15:12;11.27;;;6.80;;
9801;SDS011;4940;50.900;4.672;2023-01-08T07:17:40;7.70;;;6.93;;
9801;SDS011;4940;50.900;4.672;2023-01-08T07:20:08;8.70;;;7.35;;
9801;SDS011;4940;50.900;4.672;2023-01-08T07:22:35;8.13;;;7.63;;
9801;SDS011;4940;50.900;4.672;2023-01-08T07:25:03;8.07;;;7.28;;
9801;SDS011;4940;50.900;4.672;2023-01-08T07:27:31;8.18;;;7.35;;
9801;SDS011;4940;50.900;4.672;2023-01-08T07:30:00;9.07;;;8.20;;
9801;SDS011;4940;50.900;4.672;2023-01-08T07:32:27;9.48;;;8.55;;
9801;SDS011;4940;50.900;4.672;2023-01-08T07:34:55;10.07;;;7.50;;
9801;SDS011;4940;50.900;4.672;2023-01-08T07:37:23;8.05;;;7.28;;
9801;SDS011;4940;50.900;4.672;2023-01-08T07:39:50;10.93;;;8.43;;
9801;SDS011;4940;50.900;4.672;2023-01-08T07:42:18;8.23;;;7.43;;
9801;SDS011;4940;50.900;4.672;2023-01-08T07:44:46;10.48;;;7.88;;
9801;SDS011;4940;50.900;4.672;2023-01-08T07:47:15;15.50;;;7.30;;
9801;SDS011;4940;50.900;4.672;2023-01-08T07:49:43;10.32;;;7.90;;
9801;SDS011;4940;50.900;4.672;2023-01-08T07:52:10;6.95;;;6.45;;
9801;SDS011;4940;50.900;4.672;2023-01-08T07:54:38;13.95;;;7.30;;
9801;SDS011;4940;50.900;4.672;2023-01-08T07:57:05;8.07;;;6.97;;
9801;SDS011;4940;50.900;4.672;2023-01-08T07:59:32;7.60;;;6.90;;
9801;SDS011;4940;50.900;4.672;2023-01-08T08:02:00;8.00;;;6.95;;
9801;SDS011;4940;50.900;4.672;2023-01-08T08:04:28;14.32;;;7.50;;
9801;SDS011;4940;50.900;4.672;2023-01-08T08:06:56;9.93;;;7.57;;
9801;SDS011;4940;50.900;4.672;2023-01-08T08:09:23;8.23;;;7.05;;
9801;SDS011;4940;50.900;4.672;2023-01-08T08:11:51;12.30;;;7.93;;
9801;SDS011;4940;50.900;4.672;2023-01-08T08:14:18;8.25;;;7.10;;
9801;SDS011;4940;50.900;4.672;2023-01-08T08:16:45;8.18;;;7.38;;
9801;SDS011;4940;50.900;4.672;2023-01-08T08:19:13;9.02;;;8.18;;
9801;SDS011;4940;50.900;4.672;2023-01-08T08:21:42;8.82;;;7.97;;
9801;SDS011;4940;50.900;4.672;2023-01-08T08:24:09;9.00;;;8.18;;
9801;SDS011;4940;50.900;4.672;2023-01-08T08:26:36;7.72;;;7.13;;
9801;SDS011;4940;50.900;4.672;2023-01-08T08:29:04;10.85;;;8.30;;
9801;SDS011;4940;50.900;4.672;2023-01-08T08:31:31;9.48;;;8.48;;
9801;SDS011;4940;50.900;4.672;2023-01-08T08:33:59;9.82;;;9.00;;
9801;SDS011;4940;50.900;4.672;2023-01-08T08:36:27;12.02;;;9.23;;
9801;SDS011;4940;50.900;4.672;2023-01-08T08:38:56;21.02;;;9.68;;
9801;SDS011;4940;50.900;4.672;2023-01-08T08:41:23;10.35;;;9.20;;
9801;SDS011;4940;50.900;4.672;2023-01-08T08:43:50;11.90;;;9.63;;
9801;SDS011;4940;50.900;4.672;2023-01-08T08:46:18;16.55;;;7.78;;
9801;SDS011;4940;50.900;4.672;2023-01-08T08:48:45;9.15;;;8.48;;
9801;SDS011;4940;50.900;4.672;2023-01-08T08:51:13;8.50;;;7.90;;
9801;SDS011;4940;50.900;4.672;2023-01-08T08:53:40;10.07;;;8.75;;
9801;SDS011;4940;50.900;4.672;2023-01-08T08:56:09;9.98;;;9.27;;
9801;SDS011;4940;50.900;4.672;2023-01-08T08:58:36;9.10;;;8.45;;
9801;SDS011;4940;50.900;4.672;2023-01-08T09:01:05;9.20;;;8.60;;
9801;SDS011;4940;50.900;4.672;2023-01-08T09:03:33;8.48;;;7.88;;
9801;SDS011;4940;50.900;4.672;2023-01-08T09:06:01;8.75;;;7.97;;
9801;SDS011;4940;50.900;4.672;2023-01-08T09:08:28;8.23;;;7.63;;
9801;SDS011;4940;50.900;4.672;2023-01-08T09:10:56;8.02;;;7.47;;
9801;SDS011;4940;50.900;4.672;2023-01-08T09:13:25;7.00;;;6.60;;
9801;SDS011;4940;50.900;4.672;2023-01-08T09:15:52;7.00;;;6.60;;
9801;SDS011;4940;50.900;4.672;2023-01-08T09:18:20;6.90;;;6.50;;
9801;SDS011;4940;50.900;4.672;2023-01-08T09:20:48;6.50;;;6.10;;
9801;SDS011;4940;50.900;4.672;2023-01-08T09:23:16;5.97;;;5.68;;
9801;SDS011;4940;50.900;4.672;2023-01-08T09:25:43;6.60;;;6.20;;
9801;SDS011;4940;50.900;4.672;2023-01-08T09:28:11;6.10;;;5.80;;
9801;SDS011;4940;50.900;4.672;2023-01-08T09:30:40;6.38;;;5.97;;
9801;SDS011;4940;50.900;4.672;2023-01-08T09:33:07;5.95;;;5.65;;
9801;SDS011;4940;50.900;4.672;2023-01-08T09:35:35;6.32;;;6.03;;
9801;SDS011;4940;50.900;4.672;2023-01-08T09:38:03;6.47;;;6.15;;
9801;SDS011;4940;50.900;4.672;2023-01-08T09:40:31;6.57;;;6.18;;
9801;SDS011;4940;50.900;4.672;2023-01-08T09:43:02;7.50;;;7.10;;
9801;SDS011;4940;50.900;4.672;2023-01-08T09:45:36;7.57;;;7.07;;
9801;SDS011;4940;50.900;4.672;2023-01-08T09:48:11;7.63;;;7.13;;
9801;SDS011;4940;50.900;4.672;2023-01-08T09:50:40;7.32;;;6.93;;
9801;SDS011;4940;50.900;4.672;2023-01-08T09:53:09;5.55;;;5.25;;
9801;SDS011;4940;50.900;4.672;2023-01-08T09:55:40;3.95;;;3.75;;
9801;SDS011;4940;50.900;4.672;2023-01-08T09:58:13;3.60;;;3.45;;
9801;SDS011;4940;50.900;4.672;2023-01-08T10:00:49;3.95;;;3.65;;
9801;SDS011;4940;50.900;4.672;2023-01-08T10:03:22;3.55;;;3.40;;
9801;SDS011;4940;50.900;4.672;2023-01-08T10:08:33;3.60;;;3.40;;
9801;SDS011;4940;50.900;4.672;2023-01-08T10:11:00;3.55;;;3.30;;
9801;SDS011;4940;50.900;4.672;2023-01-08T10:13:28;3.40;;;3.20;;
9801;SDS011;4940;50.900;4.672;2023-01-08T10:15:55;3.58;;;3.38;;
9801;SDS011;4940;50.900;4.672;2023-01-08T10:18:24;3.88;;;3.58;;
9801;SDS011;4940;50.900;4.672;2023-01-08T10:20:52;3.20;;;3.00;;
9801;SDS011;4940;50.900;4.672;2023-01-08T10:23:20;4.65;;;3.17;;
9801;SDS011;4940;50.900;4.672;2023-01-08T10:26:00;3.25;;;2.72;;
9801;SDS011;4940;50.900;4.672;2023-01-08T10:28:29;3.55;;;3.33;;
9801;SDS011;4940;50.900;4.672;2023-01-08T10:31:02;3.38;;;2.95;;
9801;SDS011;4940;50.900;4.672;2023-01-08T10:33:31;2.60;;;2.40;;
9801;SDS011;4940;50.900;4.672;2023-01-08T10:36:05;2.40;;;2.30;;
9801;SDS011;4940;50.900;4.672;2023-01-08T10:38:37;2.70;;;2.47;;
9801;SDS011;4940;50.900;4.672;2023-01-08T10:41:10;4.43;;;2.60;;
9801;SDS011;4940;50.900;4.672;2023-01-08T10:43:41;3.05;;;2.40;;
9801;SDS011;4940;50.900;4.672;2023-01-08T10:46:12;2.50;;;2.30;;
9801;SDS011;4940;50.900;4.672;2023-01-08T10:48:43;2.42;;;2.33;;
9801;SDS011;4940;50.900;4.672;2023-01-08T10:51:13;2.50;;;2.30;;
9801;SDS011;4940;50.900;4.672;2023-01-08T10:53:41;2.15;;;1.85;;
9801;SDS011;4940;50.900;4.672;2023-01-08T10:56:18;1.75;;;1.63;;
9801;SDS011;4940;50.900;4.672;2023-01-08T10:58:46;1.65;;;1.55;;
9801;SDS011;4940;50.900;4.672;2023-01-08T11:01:15;2.10;;;1.55;;
9801;SDS011;4940;50.900;4.672;2023-01-08T11:03:48;1.60;;;1.50;;
9801;SDS011;4940;50.900;4.672;2023-01-08T11:06:18;3.35;;;1.30;;
9801;SDS011;4940;50.900;4.672;2023-01-08T11:08:48;3.03;;;1.58;;
9801;SDS011;4940;50.900;4.672;2023-01-08T11:11:19;3.38;;;1.27;;
9801;SDS011;4940;50.900;4.672;2023-01-08T16:54:38;3.97;;;1.30;;
9801;SDS011;4940;50.900;4.672;2023-01-08T16:57:05;1.80;;;1.00;;
9801;SDS011;4940;50.900;4.672;2023-01-08T16:59:32;2.55;;;1.30;;
9801;SDS011;4940;50.900;4.672;2023-01-08T17:02:00;1.38;;;0.90;;
9801;SDS011;4940;50.900;4.672;2023-01-08T17:04:27;4.40;;;1.08;;
9801;SDS011;4940;50.900;4.672;2023-01-08T17:06:55;2.72;;;1.17;;
9801;SDS011;4940;50.900;4.672;2023-01-08T17:09:24;1.92;;;1.05;;
9801;SDS011;4940;50.900;4.672;2023-01-08T17:11:52;2.63;;;0.90;;
9801;SDS011;4940;50.900;4.672;2023-01-08T17:14:19;3.60;;;0.95;;
9801;SDS011;4940;50.900;4.672;2023-01-08T17:16:47;3.30;;;1.05;;
9801;SDS011;4940;50.900;4.672;2023-01-08T17:19:14;3.42;;;0.93;;
9801;SDS011;4940;50.900;4.672;2023-01-08T17:21:42;3.83;;;1.10;;
9801;SDS011;4940;50.900;4.672;2023-01-08T17:24:10;2.72;;;1.00;;
9801;SDS011;4940;50.900;4.672;2023-01-08T17:26:39;3.97;;;1.40;;
9801;SDS011;4940;50.900;4.672;2023-01-08T17:29:06;4.45;;;1.08;;
9801;SDS011;4940;50.900;4.672;2023-01-08T17:31:34;7.47;;;1.00;;
9801;SDS011;4940;50.900;4.672;2023-01-08T17:34:05;3.80;;;1.25;;
9801;SDS011;4940;50.900;4.672;2023-01-08T17:36:33;2.53;;;1.50;;
9801;SDS011;4940;50.900;4.672;2023-01-08T17:39:01;3.08;;;1.30;;
9801;SDS011;4940;50.900;4.672;2023-01-08T17:41:28;5.43;;;1.17;;
9801;SDS011;4940;50.900;4.672;2023-01-08T17:44:15;3.38;;;1.17;;
9801;SDS011;4940;50.900;4.672;2023-01-08T17:46:42;2.85;;;0.98;;
9801;SDS011;4940;50.900;4.672;2023-01-08T17:49:10;2.05;;;0.93;;
9801;SDS011;4940;50.900;4.672;2023-01-08T17:51:39;5.95;;;1.10;;
9801;SDS011;4940;50.900;4.672;2023-01-08T17:54:07;6.38;;;1.33;;
9801;SDS011;4940;50.900;4.672;2023-01-08T17:56:36;1.92;;;1.02;;
9801;SDS011;4940;50.900;4.672;2023-01-08T17:59:03;3.17;;;1.40;;
9801;SDS011;4940;50.900;4.672;2023-01-08T18:01:32;9.20;;;1.30;;
9801;SDS011;4940;50.900;4.672;2023-01-08T18:04:00;5.88;;;1.20;;
9801;SDS011;4940;50.900;4.672;2023-01-08T18:06:28;2.85;;;1.23;;
9801;SDS011;4940;50.900;4.672;2023-01-08T18:08:55;2.88;;;1.42;;
9801;SDS011;4940;50.900;4.672;2023-01-08T18:11:22;5.72;;;2.20;;
9801;SDS011;4940;50.900;4.672;2023-01-08T18:13:53;7.95;;;2.33;;
9801;SDS011;4940;50.900;4.672;2023-01-08T18:16:21;4.97;;;2.03;;
9801;SDS011;4940;50.900;4.672;2023-01-08T18:18:51;5.32;;;1.52;;
9801;SDS011;4940;50.900;4.672;2023-01-08T18:21:18;9.18;;;1.40;;
9801;SDS011;4940;50.900;4.672;2023-01-08T18:23:46;5.05;;;1.33;;
9801;SDS011;4940;50.900;4.672;2023-01-08T18:26:14;4.60;;;1.60;;
9801;SDS011;4940;50.900;4.672;2023-01-08T18:28:42;1.73;;;1.00;;
9801;SDS011;4940;50.900;4.672;2023-01-08T18:31:10;1.20;;;1.08;;
9801;SDS011;4940;50.900;4.672;2023-01-08T18:33:38;2.80;;;1.38;;
9801;SDS011;4940;50.900;4.672;2023-01-08T18:36:08;3.40;;;0.93;;
9801;SDS011;4940;50.900;4.672;2023-01-08T18:38:38;5.03;;;1.75;;
9801;SDS011;4940;50.900;4.672;2023-01-08T18:41:06;3.90;;;1.20;;
9801;SDS011;4940;50.900;4.672;2023-01-08T18:43:47;3.00;;;1.25;;
9801;SDS011;4940;50.900;4.672;2023-01-08T18:46:14;2.42;;;1.40;;
9801;SDS011;4940;50.900;4.672;2023-01-08T18:48:42;5.30;;;1.70;;
9801;SDS011;4940;50.900;4.672;2023-01-08T18:51:10;4.72;;;1.48;;
9801;SDS011;4940;50.900;4.672;2023-01-08T18:53:37;3.63;;;1.35;;
9801;SDS011;4940;50.900;4.672;2023-01-08T18:56:05;4.47;;;1.60;;
9801;SDS011;4940;50.900;4.672;2023-01-08T18:58:32;4.78;;;1.65;;
9801;SDS011;4940;50.900;4.672;2023-01-08T19:01:01;3.65;;;1.30;;
9801;SDS011;4940;50.900;4.672;2023-01-08T19:03:29;2.25;;;1.02;;
9801;SDS011;4940;50.900;4.672;2023-01-08T19:05:56;1.58;;;0.90;;
9801;SDS011;4940;50.900;4.672;2023-01-08T19:08:25;4.70;;;1.45;;
9801;SDS011;4940;50.900;4.672;2023-01-08T19:10:52;3.15;;;1.38;;
9801;SDS011;4940;50.900;4.672;2023-01-08T19:13:19;3.28;;;2.20;;
9801;SDS011;4940;50.900;4.672;2023-01-08T19:15:47;2.33;;;0.88;;
9801;SDS011;4940;50.900;4.672;2023-01-08T19:18:14;1.95;;;1.20;;
9801;SDS011;4940;50.900;4.672;2023-01-08T19:20:42;2.67;;;1.10;;
9801;SDS011;4940;50.900;4.672;2023-01-08T19:23:13;4.70;;;1.50;;
9801;SDS011;4940;50.900;4.672;2023-01-08T19:25:42;2.70;;;1.42;;
9801;SDS011;4940;50.900;4.672;2023-01-08T19:28:09;3.30;;;1.30;;
9801;SDS011;4940;50.900;4.672;2023-01-08T19:30:37;1.90;;;1.20;;
9801;SDS011;4940;50.900;4.672;2023-01-08T19:33:04;3.00;;;1.40;;
9801;SDS011;4940;50.900;4.672;2023-01-08T19:35:32;2.63;;;2.10;;
9801;SDS011;4940;50.900;4.672;2023-01-08T19:38:03;4.38;;;2.10;;
9801;SDS011;4940;50.900;4.672;2023-01-08T19:40:31;4.00;;;1.80;;
9801;SDS011;4940;50.900;4.672;2023-01-08T19:43:00;2.72;;;2.03;;
9801;SDS011;4940;50.900;4.672;2023-01-08T19:45:45;2.95;;;1.92;;
9801;SDS011;4940;50.900;4.672;2023-01-08T19:48:12;3.70;;;1.83;;
9801;SDS011;4940;50.900;4.672;2023-01-08T19:50:39;2.42;;;1.75;;
9801;SDS011;4940;50.900;4.672;2023-01-08T19:53:07;3.95;;;2.00;;
9801;SDS011;4940;50.900;4.672;2023-01-08T19:55:35;4.10;;;2.15;;
9801;SDS011;4940;50.900;4.672;2023-01-08T19:58:04;2.70;;;2.33;;
9801;SDS011;4940;50.900;4.672;2023-01-08T20:00:31;3.13;;;2.00;;
9801;SDS011;4940;50.900;4.672;2023-01-08T20:03:01;2.40;;;2.08;;
9801;SDS011;4940;50.900;4.672;2023-01-08T20:05:28;2.30;;;2.10;;
9801;SDS011;4940;50.900;4.672;2023-01-08T20:07:56;3.78;;;2.60;;
9801;SDS011;4940;50.900;4.672;2023-01-08T20:10:23;2.40;;;2.20;;
9801;SDS011;4940;50.900;4.672;2023-01-08T20:12:51;2.80;;;2.55;;
9801;SDS011;4940;50.900;4.672;2023-01-08T20:15:20;3.45;;;2.63;;
9801;SDS011;4940;50.900;4.672;2023-01-08T20:17:47;5.68;;;3.15;;
9801;SDS011;4940;50.900;4.672;2023-01-08T20:20:15;3.70;;;3.40;;
9801;SDS011;4940;50.900;4.672;2023-01-08T20:22:42;5.30;;;3.80;;
9801;SDS011;4940;50.900;4.672;2023-01-08T20:25:10;3.65;;;3.13;;
9801;SDS011;4940;50.900;4.672;2023-01-08T20:27:37;3.72;;;3.42;;
9801;SDS011;4940;50.900;4.672;2023-01-08T20:30:05;3.92;;;3.60;;
9801;SDS011;4940;50.900;4.672;2023-01-08T20:32:35;5.28;;;3.00;;
9801;SDS011;4940;50.900;4.672;2023-01-08T20:35:03;5.90;;;3.30;;
9801;SDS011;4940;50.900;4.672;2023-01-08T20:37:30;3.22;;;3.03;;
9801;SDS011;4940;50.900;4.672;2023-01-08T20:39:58;3.20;;;3.00;;
9801;SDS011;4940;50.900;4.672;2023-01-08T20:42:25;5.72;;;3.40;;
9801;SDS011;4940;50.900;4.672;2023-01-08T20:44:53;3.40;;;3.10;;
9801;SDS011;4940;50.900;4.672;2023-01-08T20:47:21;3.58;;;3.20;;
9801;SDS011;4940;50.900;4.672;2023-01-08T20:49:51;3.40;;;3.10;;
9801;SDS011;4940;50.900;4.672;2023-01-08T20:52:19;3.60;;;3.20;;
9801;SDS011;4940;50.900;4.672;2023-01-08T20:54:46;3.72;;;3.42;;
9801;SDS011;4940;50.900;4.672;2023-01-08T20:57:13;4.40;;;4.00;;
9801;SDS011;4940;50.900;4.672;2023-01-08T20:59:41;4.03;;;3.65;;
9801;SDS011;4940;50.900;4.672;2023-01-08T21:02:08;4.15;;;3.75;;
9801;SDS011;4940;50.900;4.672;2023-01-08T21:04:37;6.32;;;3.60;;